sensor_id;sensor_type;location;lat;lon;timestamp;temperature;humidity
47773;DHT22;33534;51.028;13.716;2022-07-23T00:01:31;21.10;67.20
47773;DHT22;33534;51.028;13.716;2022-07-23T00:03:57;21.00;67.30
47773;DHT22;33534;51.028;13.716;2022-07-23T00:06:23;21.00;67.50
47773;DHT22;33534;51.028;13.716;2022-07-23T00:08:49;21.00;67.60
47773;DHT22;33534;51.028;13.716;2022-07-23T00:11:14;21.00;67.70
47773;DHT22;33534;51.028;13.716;2022-07-23T00:13:40;21.00;67.60
47773;DHT22;33534;51.028;13.716;2022-07-23T00:16:06;20.90;68.00
47773;DHT22;33534;51.028;13.716;2022-07-23T00:18:32;20.80;68.10
47773;DHT22;33534;51.028;13.716;2022-07-23T00:20:57;20.80;68.30
47773;DHT22;33534;51.028;13.716;2022-07-23T00:23:23;20.70;68.70
47773;DHT22;33534;51.028;13.716;2022-07-23T00:25:51;20.70;68.70
47773;DHT22;33534;51.028;13.716;2022-07-23T00:28:17;20.60;68.90
47773;DHT22;33534;51.028;13.716;2022-07-23T00:30:44;20.60;69.10
47773;DHT22;33534;51.028;13.716;2022-07-23T00:33:09;20.60;69.20
47773;DHT22;33534;51.028;13.716;2022-07-23T00:35:37;20.50;69.40
47773;DHT22;33534;51.028;13.716;2022-07-23T00:38:06;20.50;69.60
47773;DHT22;33534;51.028;13.716;2022-07-23T00:40:32;20.50;69.70
47773;DHT22;33534;51.028;13.716;2022-07-23T00:42:58;20.50;70.00
47773;DHT22;33534;51.028;13.716;2022-07-23T00:45:24;20.50;70.00
47773;DHT22;33534;51.028;13.716;2022-07-23T00:47:50;20.50;70.00
47773;DHT22;33534;51.028;13.716;2022-07-23T00:50:16;20.40;70.20
47773;DHT22;33534;51.028;13.716;2022-07-23T00:52:42;20.50;70.40
47773;DHT22;33534;51.028;13.716;2022-07-23T00:55:08;20.50;70.80
47773;DHT22;33534;51.028;13.716;2022-07-23T00:57:35;20.50;70.80
47773;DHT22;33534;51.028;13.716;2022-07-23T01:00:02;20.50;70.80
47773;DHT22;33534;51.028;13.716;2022-07-23T01:02:28;20.50;70.80
47773;DHT22;33534;51.028;13.716;2022-07-23T01:04:54;20.50;71.10
47773;DHT22;33534;51.028;13.716;2022-07-23T01:07:20;20.50;71.30
47773;DHT22;33534;51.028;13.716;2022-07-23T01:09:46;20.60;71.00
47773;DHT22;33534;51.028;13.716;2022-07-23T01:12:12;20.70;71.00
47773;DHT22;33534;51.028;13.716;2022-07-23T01:14:38;20.80;70.70
47773;DHT22;33534;51.028;13.716;2022-07-23T01:17:04;20.90;70.50
47773;DHT22;33534;51.028;13.716;2022-07-23T01:19:30;20.90;70.40
47773;DHT22;33534;51.028;13.716;2022-07-23T01:21:57;20.90;70.20
47773;DHT22;33534;51.028;13.716;2022-07-23T01:24:24;20.90;70.50
47773;DHT22;33534;51.028;13.716;2022-07-23T01:26:49;21.00;70.30
47773;DHT22;33534;51.028;13.716;2022-07-23T05:10:51;21.80;67.20
47773;DHT22;33534;51.028;13.716;2022-07-23T05:13:17;21.80;67.10
47773;DHT22;33534;51.028;13.716;2022-07-23T05:15:43;21.80;67.20
47773;DHT22;33534;51.028;13.716;2022-07-23T05:18:09;22.00;66.30
47773;DHT22;33534;51.028;13.716;2022-07-23T05:20:35;22.10;65.80
47773;DHT22;33534;51.028;13.716;2022-07-23T05:23:00;22.20;65.50
47773;DHT22;33534;51.028;13.716;2022-07-23T05:25:26;22.50;64.70
47773;DHT22;33534;51.028;13.716;2022-07-23T05:27:52;22.70;64.10
47773;DHT22;33534;51.028;13.716;2022-07-23T05:30:18;22.80;63.10
47773;DHT22;33534;51.028;13.716;2022-07-23T05:32:43;22.80;63.40
47773;DHT22;33534;51.028;13.716;2022-07-23T05:35:09;22.80;63.80
47773;DHT22;33534;51.028;13.716;2022-07-23T05:37:35;22.70;63.60
47773;DHT22;33534;51.028;13.716;2022-07-23T05:40:03;22.70;63.30
47773;DHT22;33534;51.028;13.716;2022-07-23T05:42:31;22.80;63.30
47773;DHT22;33534;51.028;13.716;2022-07-23T05:44:57;23.00;63.00
47773;DHT22;33534;51.028;13.716;2022-07-23T05:47:23;22.90;62.90
47773;DHT22;33534;51.028;13.716;2022-07-23T05:49:48;22.80;63.10
47773;DHT22;33534;51.028;13.716;2022-07-23T05:52:14;22.70;63.50
47773;DHT22;33534;51.028;13.716;2022-07-23T05:54:39;22.50;63.80
47773;DHT22;33534;51.028;13.716;2022-07-23T05:57:05;22.50;64.10
47773;DHT22;33534;51.028;13.716;2022-07-23T05:59:31;22.50;64.20
47773;DHT22;33534;51.028;13.716;2022-07-23T06:01:57;22.30;64.50
47773;DHT22;33534;51.028;13.716;2022-07-23T06:04:22;22.30;64.30
47773;DHT22;33534;51.028;13.716;2022-07-23T06:06:48;22.00;65.40
47773;DHT22;33534;51.028;13.716;2022-07-23T06:09:13;22.00;66.00
47773;DHT22;33534;51.028;13.716;2022-07-23T06:11:40;21.90;65.50
47773;DHT22;33534;51.028;13.716;2022-07-23T06:14:06;21.70;65.60
47773;DHT22;33534;51.028;13.716;2022-07-23T06:16:31;21.60;66.00
47773;DHT22;33534;51.028;13.716;2022-07-23T06:18:57;21.70;66.00
47773;DHT22;33534;51.028;13.716;2022-07-23T06:21:22;21.80;65.90
47773;DHT22;33534;51.028;13.716;2022-07-23T06:23:48;21.70;66.50
47773;DHT22;33534;51.028;13.716;2022-07-23T06:26:14;21.60;66.20
47773;DHT22;33534;51.028;13.716;2022-07-23T06:52:59;22.30;63.50
47773;DHT22;33534;51.028;13.716;2022-07-23T06:55:25;22.80;62.20
47773;DHT22;33534;51.028;13.716;2022-07-23T07:00:17;23.70;58.80
47773;DHT22;33534;51.028;13.716;2022-07-23T07:02:42;23.90;58.20
47773;DHT22;33534;51.028;13.716;2022-07-23T07:05:08;23.50;59.80
47773;DHT22;33534;51.028;13.716;2022-07-23T07:07:34;23.50;59.10
47773;DHT22;33534;51.028;13.716;2022-07-23T07:10:00;23.90;59.20
47773;DHT22;33534;51.028;13.716;2022-07-23T07:12:26;24.10;57.30
47773;DHT22;33534;51.028;13.716;2022-07-23T07:14:51;24.30;56.20
47773;DHT22;33534;51.028;13.716;2022-07-23T07:17:18;24.60;55.70
47773;DHT22;33534;51.028;13.716;2022-07-23T07:56:15;30.10;42.30
47773;DHT22;33534;51.028;13.716;2022-07-23T07:58:41;31.20;39.50
47773;DHT22;33534;51.028;13.716;2022-07-23T08:01:06;31.50;38.80
47773;DHT22;33534;51.028;13.716;2022-07-23T08:03:32;32.50;37.30
47773;DHT22;33534;51.028;13.716;2022-07-23T08:05:57;31.80;37.50
47773;DHT22;33534;51.028;13.716;2022-07-23T08:08:24;31.20;38.50
47773;DHT22;33534;51.028;13.716;2022-07-23T08:10:50;30.90;38.80
47773;DHT22;33534;51.028;13.716;2022-07-23T08:35:38;28.70;44.80
47773;DHT22;33534;51.028;13.716;2022-07-23T08:38:06;28.70;44.70
47773;DHT22;33534;51.028;13.716;2022-07-23T08:40:34;29.80;40.90
47773;DHT22;33534;51.028;13.716;2022-07-23T09:12:37;31.30;37.90
47773;DHT22;33534;51.028;13.716;2022-07-23T09:15:06;30.70;38.80
47773;DHT22;33534;51.028;13.716;2022-07-23T09:17:39;30.80;39.70
47773;DHT22;33534;51.028;13.716;2022-07-23T09:20:13;30.70;39.60
47773;DHT22;33534;51.028;13.716;2022-07-23T09:22:46;30.70;40.10
47773;DHT22;33534;51.028;13.716;2022-07-23T09:25:15;30.60;40.30
47773;DHT22;33534;51.028;13.716;2022-07-23T09:30:31;30.20;39.60
47773;DHT22;33534;51.028;13.716;2022-07-23T09:33:11;29.40;41.70
47773;DHT22;33534;51.028;13.716;2022-07-23T09:38:13;30.00;42.20
47773;DHT22;33534;51.028;13.716;2022-07-23T09:40:39;30.50;40.90
47773;DHT22;33534;51.028;13.716;2022-07-23T09:43:04;30.80;40.10
47773;DHT22;33534;51.028;13.716;2022-07-23T09:45:30;30.90;40.00
47773;DHT22;33534;51.028;13.716;2022-07-23T09:48:12;30.20;40.90
47773;DHT22;33534;51.028;13.716;2022-07-23T09:50:40;30.20;40.80
47773;DHT22;33534;51.028;13.716;2022-07-23T09:53:06;30.30;40.80
47773;DHT22;33534;51.028;13.716;2022-07-23T09:55:35;30.30;40.00
47773;DHT22;33534;51.028;13.716;2022-07-23T09:58:07;29.80;41.80
47773;DHT22;33534;51.028;13.716;2022-07-23T10:00:40;28.60;43.10
47773;DHT22;33534;51.028;13.716;2022-07-23T10:03:08;28.40;44.60
47773;DHT22;33534;51.028;13.716;2022-07-23T10:05:35;28.70;42.90
47773;DHT22;33534;51.028;13.716;2022-07-23T10:08:02;28.60;43.20
47773;DHT22;33534;51.028;13.716;2022-07-23T10:10:30;28.10;44.00
47773;DHT22;33534;51.028;13.716;2022-07-23T10:12:56;27.50;45.80
47773;DHT22;33534;51.028;13.716;2022-07-23T10:15:51;27.60;45.70
47773;DHT22;33534;51.028;13.716;2022-07-23T10:18:17;28.30;46.00
47773;DHT22;33534;51.028;13.716;2022-07-23T10:20:43;29.10;42.80
47773;DHT22;33534;51.028;13.716;2022-07-23T10:23:29;29.20;43.00
47773;DHT22;33534;51.028;13.716;2022-07-23T10:26:14;29.20;43.90
47773;DHT22;33534;51.028;13.716;2022-07-23T11:04:50;28.20;44.00
47773;DHT22;33534;51.028;13.716;2022-07-23T11:07:16;28.20;44.50
47773;DHT22;33534;51.028;13.716;2022-07-23T11:09:43;27.60;45.90
47773;DHT22;33534;51.028;13.716;2022-07-23T11:17:27;28.80;44.70
47773;DHT22;33534;51.028;13.716;2022-07-23T11:20:12;29.40;42.70
47773;DHT22;33534;51.028;13.716;2022-07-23T11:25:10;29.20;43.20
47773;DHT22;33534;51.028;13.716;2022-07-23T11:27:44;29.40;43.30
47773;DHT22;33534;51.028;13.716;2022-07-23T11:33:37;29.20;43.00
47773;DHT22;33534;51.028;13.716;2022-07-23T11:35:42;29.50;43.00
47773;DHT22;33534;51.028;13.716;2022-07-23T11:40:37;29.40;42.60
47773;DHT22;33534;51.028;13.716;2022-07-23T11:43:06;29.30;43.00
47773;DHT22;33534;51.028;13.716;2022-07-23T11:45:46;28.80;44.60
47773;DHT22;33534;51.028;13.716;2022-07-23T11:48:23;28.90;44.60
47773;DHT22;33534;51.028;13.716;2022-07-23T11:50:50;28.90;44.70
47773;DHT22;33534;51.028;13.716;2022-07-23T11:53:26;28.90;44.80
47773;DHT22;33534;51.028;13.716;2022-07-23T11:55:52;29.00;44.90
47773;DHT22;33534;51.028;13.716;2022-07-23T11:58:18;29.30;44.10
47773;DHT22;33534;51.028;13.716;2022-07-23T12:00:44;29.40;43.90
47773;DHT22;33534;51.028;13.716;2022-07-23T12:03:09;29.40;43.90
47773;DHT22;33534;51.028;13.716;2022-07-23T12:05:37;29.00;44.60
47773;DHT22;33534;51.028;13.716;2022-07-23T12:08:05;29.00;44.70
47773;DHT22;33534;51.028;13.716;2022-07-23T12:10:37;28.80;44.90
47773;DHT22;33534;51.028;13.716;2022-07-23T12:13:04;28.80;45.00
47773;DHT22;33534;51.028;13.716;2022-07-23T12:15:42;28.50;45.80
47773;DHT22;33534;51.028;13.716;2022-07-23T12:18:14;28.20;46.80
47773;DHT22;33534;51.028;13.716;2022-07-23T12:20:42;28.00;47.40
47773;DHT22;33534;51.028;13.716;2022-07-23T12:23:13;27.70;48.30
47773;DHT22;33534;51.028;13.716;2022-07-23T12:25:43;27.70;48.40
47773;DHT22;33534;51.028;13.716;2022-07-23T12:30:49;27.90;48.20
47773;DHT22;33534;51.028;13.716;2022-07-23T12:35:53;28.10;47.60
47773;DHT22;33534;51.028;13.716;2022-07-23T12:38:21;28.30;47.40
47773;DHT22;33534;51.028;13.716;2022-07-23T12:40:58;28.30;47.20
47773;DHT22;33534;51.028;13.716;2022-07-23T12:43:30;28.40;47.00
47773;DHT22;33534;51.028;13.716;2022-07-23T12:46:04;28.40;46.80
47773;DHT22;33534;51.028;13.716;2022-07-23T12:48:30;28.40;46.80
47773;DHT22;33534;51.028;13.716;2022-07-23T12:53:40;26.60;51.20
47773;DHT22;33534;51.028;13.716;2022-07-23T12:56:13;26.40;52.10
47773;DHT22;33534;51.028;13.716;2022-07-23T13:04:08;27.70;49.20
47773;DHT22;33534;51.028;13.716;2022-07-23T13:06:36;27.80;48.30
47773;DHT22;33534;51.028;13.716;2022-07-23T13:09:04;27.60;49.10
47773;DHT22;33534;51.028;13.716;2022-07-23T13:11:30;27.40;49.70
47773;DHT22;33534;51.028;13.716;2022-07-23T13:13:56;27.00;50.70
47773;DHT22;33534;51.028;13.716;2022-07-23T13:16:22;27.40;49.90
47773;DHT22;33534;51.028;13.716;2022-07-23T13:18:47;27.90;48.90
47773;DHT22;33534;51.028;13.716;2022-07-23T13:21:13;28.00;47.80
47773;DHT22;33534;51.028;13.716;2022-07-23T13:23:39;28.30;47.50
47773;DHT22;33534;51.028;13.716;2022-07-23T13:26:05;28.60;46.80
47773;DHT22;33534;51.028;13.716;2022-07-23T13:28:30;28.50;46.70
47773;DHT22;33534;51.028;13.716;2022-07-23T13:30:56;28.10;47.20
47773;DHT22;33534;51.028;13.716;2022-07-23T13:33:24;28.10;47.30
47773;DHT22;33534;51.028;13.716;2022-07-23T13:35:51;28.00;47.80
47773;DHT22;33534;51.028;13.716;2022-07-23T13:38:18;27.60;48.70
47773;DHT22;33534;51.028;13.716;2022-07-23T13:40:45;27.40;48.90
47773;DHT22;33534;51.028;13.716;2022-07-23T13:43:13;27.70;48.60
47773;DHT22;33534;51.028;13.716;2022-07-23T13:45:40;27.90;48.20
47773;DHT22;33534;51.028;13.716;2022-07-23T13:48:08;28.20;47.50
47773;DHT22;33534;51.028;13.716;2022-07-23T13:50:34;28.50;47.10
47773;DHT22;33534;51.028;13.716;2022-07-23T13:53:04;28.50;46.70
47773;DHT22;33534;51.028;13.716;2022-07-23T13:55:31;28.40;47.10
47773;DHT22;33534;51.028;13.716;2022-07-23T13:57:57;28.40;46.80
47773;DHT22;33534;51.028;13.716;2022-07-23T14:00:24;28.20;47.30
47773;DHT22;33534;51.028;13.716;2022-07-23T14:02:49;28.50;47.20
47773;DHT22;33534;51.028;13.716;2022-07-23T14:05:15;28.70;46.10
47773;DHT22;33534;51.028;13.716;2022-07-23T14:07:41;28.80;45.90
47773;DHT22;33534;51.028;13.716;2022-07-23T14:10:09;28.40;46.50
47773;DHT22;33534;51.028;13.716;2022-07-23T14:12:34;28.10;47.60
47773;DHT22;33534;51.028;13.716;2022-07-23T14:15:01;28.30;47.30
47773;DHT22;33534;51.028;13.716;2022-07-23T14:17:27;28.60;46.20
47773;DHT22;33534;51.028;13.716;2022-07-23T14:19:53;28.50;47.00
47773;DHT22;33534;51.028;13.716;2022-07-23T14:22:19;28.90;45.20
47773;DHT22;33534;51.028;13.716;2022-07-23T14:24:44;28.30;46.10
47773;DHT22;33534;51.028;13.716;2022-07-23T14:27:10;28.40;46.70
47773;DHT22;33534;51.028;13.716;2022-07-23T14:29:36;28.80;45.90
47773;DHT22;33534;51.028;13.716;2022-07-23T14:32:03;29.20;44.70
47773;DHT22;33534;51.028;13.716;2022-07-23T14:34:28;29.10;44.30
47773;DHT22;33534;51.028;13.716;2022-07-23T14:36:54;28.80;45.10
47773;DHT22;33534;51.028;13.716;2022-07-23T14:39:20;28.80;45.50
47773;DHT22;33534;51.028;13.716;2022-07-23T14:41:46;28.60;45.30
47773;DHT22;33534;51.028;13.716;2022-07-23T14:44:11;28.20;46.50
47773;DHT22;33534;51.028;13.716;2022-07-23T14:46:37;27.50;47.20
47773;DHT22;33534;51.028;13.716;2022-07-23T14:49:03;27.20;48.70
47773;DHT22;33534;51.028;13.716;2022-07-23T14:51:29;27.60;48.20
47773;DHT22;33534;51.028;13.716;2022-07-23T14:53:55;27.60;46.90
47773;DHT22;33534;51.028;13.716;2022-07-23T14:56:20;26.90;48.90
47773;DHT22;33534;51.028;13.716;2022-07-23T14:58:46;26.70;49.20
47773;DHT22;33534;51.028;13.716;2022-07-23T15:01:12;26.60;49.60
47773;DHT22;33534;51.028;13.716;2022-07-23T15:03:37;26.70;49.70
47773;DHT22;33534;51.028;13.716;2022-07-23T15:06:04;26.60;50.40
47773;DHT22;33534;51.028;13.716;2022-07-23T15:08:30;26.80;49.40
47773;DHT22;33534;51.028;13.716;2022-07-23T15:10:55;26.70;48.90
47773;DHT22;33534;51.028;13.716;2022-07-23T15:13:21;26.40;50.70
47773;DHT22;33534;51.028;13.716;2022-07-23T15:15:47;26.60;49.90
47773;DHT22;33534;51.028;13.716;2022-07-23T15:18:12;26.70;49.30
47773;DHT22;33534;51.028;13.716;2022-07-23T15:20:38;26.90;48.70
47773;DHT22;33534;51.028;13.716;2022-07-23T15:23:05;26.90;48.30
47773;DHT22;33534;51.028;13.716;2022-07-23T15:25:30;26.70;48.70
47773;DHT22;33534;51.028;13.716;2022-07-23T15:27:59;26.60;49.20
47773;DHT22;33534;51.028;13.716;2022-07-23T15:30:26;26.90;48.80
47773;DHT22;33534;51.028;13.716;2022-07-23T15:32:51;27.10;48.60
47773;DHT22;33534;51.028;13.716;2022-07-23T15:35:17;27.40;47.50
47773;DHT22;33534;51.028;13.716;2022-07-23T15:37:43;27.00;47.30
47773;DHT22;33534;51.028;13.716;2022-07-23T15:40:09;26.90;48.20
47773;DHT22;33534;51.028;13.716;2022-07-23T15:42:35;26.80;48.80
47773;DHT22;33534;51.028;13.716;2022-07-23T15:45:01;27.10;48.10
47773;DHT22;33534;51.028;13.716;2022-07-23T15:47:27;27.20;47.70
47773;DHT22;33534;51.028;13.716;2022-07-23T15:49:52;27.20;47.60
47773;DHT22;33534;51.028;13.716;2022-07-23T15:52:18;27.10;47.60
47773;DHT22;33534;51.028;13.716;2022-07-23T15:54:43;26.90;47.90
47773;DHT22;33534;51.028;13.716;2022-07-23T15:57:09;26.50;49.50
47773;DHT22;33534;51.028;13.716;2022-07-23T15:59:36;26.40;49.20
47773;DHT22;33534;51.028;13.716;2022-07-23T16:02:02;26.30;50.30
47773;DHT22;33534;51.028;13.716;2022-07-23T16:04:28;26.40;50.30
47773;DHT22;33534;51.028;13.716;2022-07-23T16:06:54;26.40;49.80
47773;DHT22;33534;51.028;13.716;2022-07-23T16:09:21;26.10;50.40
47773;DHT22;33534;51.028;13.716;2022-07-23T16:11:46;26.00;50.90
47773;DHT22;33534;51.028;13.716;2022-07-23T16:14:12;26.30;50.80
47773;DHT22;33534;51.028;13.716;2022-07-23T16:16:37;26.40;50.10
47773;DHT22;33534;51.028;13.716;2022-07-23T16:19:03;26.40;49.50
47773;DHT22;33534;51.028;13.716;2022-07-23T16:21:29;26.30;50.30
47773;DHT22;33534;51.028;13.716;2022-07-23T16:23:54;26.40;49.70
47773;DHT22;33534;51.028;13.716;2022-07-23T16:26:20;26.00;50.50
47773;DHT22;33534;51.028;13.716;2022-07-23T16:28:46;26.00;50.70
47773;DHT22;33534;51.028;13.716;2022-07-23T16:31:12;26.00;51.50
47773;DHT22;33534;51.028;13.716;2022-07-23T16:33:39;26.00;51.60
47773;DHT22;33534;51.028;13.716;2022-07-23T16:36:05;25.80;51.30
47773;DHT22;33534;51.028;13.716;2022-07-23T16:38:34;25.70;52.20
47773;DHT22;33534;51.028;13.716;2022-07-23T16:41:00;25.70;51.90
47773;DHT22;33534;51.028;13.716;2022-07-23T16:43:26;25.70;52.60
47773;DHT22;33534;51.028;13.716;2022-07-23T16:45:52;25.60;51.90
47773;DHT22;33534;51.028;13.716;2022-07-23T16:48:18;25.50;52.40
47773;DHT22;33534;51.028;13.716;2022-07-23T16:50:45;25.70;52.60
47773;DHT22;33534;51.028;13.716;2022-07-23T16:53:11;25.70;52.90
47773;DHT22;33534;51.028;13.716;2022-07-23T16:55:37;25.80;52.50
47773;DHT22;33534;51.028;13.716;2022-07-23T16:58:04;25.90;52.20
47773;DHT22;33534;51.028;13.716;2022-07-23T17:00:29;25.90;52.60
47773;DHT22;33534;51.028;13.716;2022-07-23T17:02:55;25.90;52.00
47773;DHT22;33534;51.028;13.716;2022-07-23T17:05:21;26.00;52.00
47773;DHT22;33534;51.028;13.716;2022-07-23T17:07:46;26.00;51.20
47773;DHT22;33534;51.028;13.716;2022-07-23T17:10:12;25.90;51.80
47773;DHT22;33534;51.028;13.716;2022-07-23T17:12:38;25.80;51.90
47773;DHT22;33534;51.028;13.716;2022-07-23T17:15:04;25.70;52.20
47773;DHT22;33534;51.028;13.716;2022-07-23T17:17:30;25.70;52.30
47773;DHT22;33534;51.028;13.716;2022-07-23T17:19:56;25.50;53.10
47773;DHT22;33534;51.028;13.716;2022-07-23T17:22:21;25.50;52.60
47773;DHT22;33534;51.028;13.716;2022-07-23T17:24:47;25.40;53.00
47773;DHT22;33534;51.028;13.716;2022-07-23T17:27:12;25.50;52.70
47773;DHT22;33534;51.028;13.716;2022-07-23T17:29:39;25.60;52.20
47773;DHT22;33534;51.028;13.716;2022-07-23T17:32:04;25.60;52.10
47773;DHT22;33534;51.028;13.716;2022-07-23T17:34:30;25.70;51.90
47773;DHT22;33534;51.028;13.716;2022-07-23T17:36:56;25.70;51.30
47773;DHT22;33534;51.028;13.716;2022-07-23T17:39:21;25.70;51.40
47773;DHT22;33534;51.028;13.716;2022-07-23T17:41:47;25.80;51.00
47773;DHT22;33534;51.028;13.716;2022-07-23T17:44:14;25.80;50.70
47773;DHT22;33534;51.028;13.716;2022-07-23T17:46:40;25.70;50.80
47773;DHT22;33534;51.028;13.716;2022-07-23T17:49:06;25.60;51.20
47773;DHT22;33534;51.028;13.716;2022-07-23T17:51:32;25.40;51.50
47773;DHT22;33534;51.028;13.716;2022-07-23T17:53:58;25.20;52.40
47773;DHT22;33534;51.028;13.716;2022-07-23T17:56:23;25.00;53.00
47773;DHT22;33534;51.028;13.716;2022-07-23T17:58:49;24.90;53.30
47773;DHT22;33534;51.028;13.716;2022-07-23T18:01:14;24.70;54.20
47773;DHT22;33534;51.028;13.716;2022-07-23T18:03:41;24.60;54.60
47773;DHT22;33534;51.028;13.716;2022-07-23T18:06:07;24.50;54.70
47773;DHT22;33534;51.028;13.716;2022-07-23T18:08:33;24.40;54.60
47773;DHT22;33534;51.028;13.716;2022-07-23T18:10:58;24.40;54.30
47773;DHT22;33534;51.028;13.716;2022-07-23T18:13:24;24.30;54.20
47773;DHT22;33534;51.028;13.716;2022-07-23T18:15:49;24.30;54.70
47773;DHT22;33534;51.028;13.716;2022-07-23T18:18:15;24.20;54.60
47773;DHT22;33534;51.028;13.716;2022-07-23T18:20:41;24.20;53.70
47773;DHT22;33534;51.028;13.716;2022-07-23T18:23:06;24.00;53.40
47773;DHT22;33534;51.028;13.716;2022-07-23T18:25:32;24.00;53.10
47773;DHT22;33534;51.028;13.716;2022-07-23T18:27:58;23.90;53.50
47773;DHT22;33534;51.028;13.716;2022-07-23T18:30:24;23.90;53.30
47773;DHT22;33534;51.028;13.716;2022-07-23T18:32:50;23.80;53.60
47773;DHT22;33534;51.028;13.716;2022-07-23T18:35:15;23.80;53.90
47773;DHT22;33534;51.028;13.716;2022-07-23T18:37:41;23.60;54.20
47773;DHT22;33534;51.028;13.716;2022-07-23T18:40:08;23.50;54.80
47773;DHT22;33534;51.028;13.716;2022-07-23T18:42:35;23.40;55.00
47773;DHT22;33534;51.028;13.716;2022-07-23T18:45:01;23.20;55.30
47773;DHT22;33534;51.028;13.716;2022-07-23T18:47:28;23.10;55.80
47773;DHT22;33534;51.028;13.716;2022-07-23T18:49:53;23.00;56.30
47773;DHT22;33534;51.028;13.716;2022-07-23T18:52:19;22.90;56.70
47773;DHT22;33534;51.028;13.716;2022-07-23T18:54:45;22.80;57.00
47773;DHT22;33534;51.028;13.716;2022-07-23T18:57:10;22.70;57.20
47773;DHT22;33534;51.028;13.716;2022-07-23T18:59:37;22.60;57.30
47773;DHT22;33534;51.028;13.716;2022-07-23T19:02:03;22.50;57.80
47773;DHT22;33534;51.028;13.716;2022-07-23T19:04:29;22.50;57.70
47773;DHT22;33534;51.028;13.716;2022-07-23T19:06:55;22.40;58.30
47773;DHT22;33534;51.028;13.716;2022-07-23T19:09:20;22.30;58.30
47773;DHT22;33534;51.028;13.716;2022-07-23T19:11:46;22.20;58.40
47773;DHT22;33534;51.028;13.716;2022-07-23T19:14:12;22.10;58.70
47773;DHT22;33534;51.028;13.716;2022-07-23T19:16:37;22.00;58.90
47773;DHT22;33534;51.028;13.716;2022-07-23T19:19:03;22.00;59.60
47773;DHT22;33534;51.028;13.716;2022-07-23T19:21:29;22.00;59.80
47773;DHT22;33534;51.028;13.716;2022-07-23T19:23:54;22.00;60.00
47773;DHT22;33534;51.028;13.716;2022-07-23T19:26:20;21.90;60.20
47773;DHT22;33534;51.028;13.716;2022-07-23T19:28:46;21.70;60.60
47773;DHT22;33534;51.028;13.716;2022-07-23T19:31:12;21.60;60.70
47773;DHT22;33534;51.028;13.716;2022-07-23T19:33:39;21.60;61.00
47773;DHT22;33534;51.028;13.716;2022-07-23T19:36:05;21.50;61.20
47773;DHT22;33534;51.028;13.716;2022-07-23T19:38:31;21.50;61.60
47773;DHT22;33534;51.028;13.716;2022-07-23T19:40:56;21.40;61.80
47773;DHT22;33534;51.028;13.716;2022-07-23T19:43:22;21.30;62.10
47773;DHT22;33534;51.028;13.716;2022-07-23T19:45:48;21.30;62.30
47773;DHT22;33534;51.028;13.716;2022-07-23T19:48:13;21.20;62.40
47773;DHT22;33534;51.028;13.716;2022-07-23T19:50:39;21.20;62.80
47773;DHT22;33534;51.028;13.716;2022-07-23T19:53:04;21.10;63.00
47773;DHT22;33534;51.028;13.716;2022-07-23T19:55:30;21.10;63.20
47773;DHT22;33534;51.028;13.716;2022-07-23T19:57:56;21.00;63.40
47773;DHT22;33534;51.028;13.716;2022-07-23T20:00:22;21.00;63.50
47773;DHT22;33534;51.028;13.716;2022-07-23T20:02:48;21.00;64.00
47773;DHT22;33534;51.028;13.716;2022-07-23T20:05:14;21.00;64.10
47773;DHT22;33534;51.028;13.716;2022-07-23T20:07:39;21.00;64.40
47773;DHT22;33534;51.028;13.716;2022-07-23T20:10:07;21.10;63.90
47773;DHT22;33534;51.028;13.716;2022-07-23T20:12:33;21.10;63.40
47773;DHT22;33534;51.028;13.716;2022-07-23T20:14:58;21.00;63.60
47773;DHT22;33534;51.028;13.716;2022-07-23T20:17:24;21.00;63.60
47773;DHT22;33534;51.028;13.716;2022-07-23T20:19:49;21.00;64.20
47773;DHT22;33534;51.028;13.716;2022-07-23T20:22:15;20.90;64.60
47773;DHT22;33534;51.028;13.716;2022-07-23T20:24:41;21.00;64.30
47773;DHT22;33534;51.028;13.716;2022-07-23T20:27:07;20.90;64.40
47773;DHT22;33534;51.028;13.716;2022-07-23T20:29:32;20.90;64.80
47773;DHT22;33534;51.028;13.716;2022-07-23T20:31:58;21.00;64.50
47773;DHT22;33534;51.028;13.716;2022-07-23T20:34:23;21.00;64.50
47773;DHT22;33534;51.028;13.716;2022-07-23T20:36:49;21.20;64.40
47773;DHT22;33534;51.028;13.716;2022-07-23T20:39:15;21.20;64.00
47773;DHT22;33534;51.028;13.716;2022-07-23T20:41:41;21.00;64.40
47773;DHT22;33534;51.028;13.716;2022-07-23T20:44:07;21.00;64.90
47773;DHT22;33534;51.028;13.716;2022-07-23T20:46:33;20.90;65.10
47773;DHT22;33534;51.028;13.716;2022-07-23T20:48:59;20.80;65.10
47773;DHT22;33534;51.028;13.716;2022-07-23T20:51:25;20.70;65.40
47773;DHT22;33534;51.028;13.716;2022-07-23T20:53:51;20.60;65.80
47773;DHT22;33534;51.028;13.716;2022-07-23T20:56:17;20.60;66.10
47773;DHT22;33534;51.028;13.716;2022-07-23T20:58:43;20.60;66.30
47773;DHT22;33534;51.028;13.716;2022-07-23T21:01:09;20.70;66.40
47773;DHT22;33534;51.028;13.716;2022-07-23T21:03:35;20.70;66.10
47773;DHT22;33534;51.028;13.716;2022-07-23T21:06:01;20.70;66.10
47773;DHT22;33534;51.028;13.716;2022-07-23T21:08:26;20.60;66.30
47773;DHT22;33534;51.028;13.716;2022-07-23T21:10:52;20.60;66.50
47773;DHT22;33534;51.028;13.716;2022-07-23T21:15:43;20.30;67.30
47773;DHT22;33534;51.028;13.716;2022-07-23T21:18:09;20.20;67.60
47773;DHT22;33534;51.028;13.716;2022-07-23T21:20:35;20.20;67.80
47773;DHT22;33534;51.028;13.716;2022-07-23T21:23:19;20.20;67.80
47773;DHT22;33534;51.028;13.716;2022-07-23T21:25:45;20.20;67.70
47773;DHT22;33534;51.028;13.716;2022-07-23T21:28:11;20.20;67.80
47773;DHT22;33534;51.028;13.716;2022-07-23T21:30:37;20.10;68.10
47773;DHT22;33534;51.028;13.716;2022-07-23T21:33:03;20.10;68.40
47773;DHT22;33534;51.028;13.716;2022-07-23T21:35:28;20.00;68.40
47773;DHT22;33534;51.028;13.716;2022-07-23T21:37:54;20.00;68.80
47773;DHT22;33534;51.028;13.716;2022-07-23T21:40:20;20.00;69.20
47773;DHT22;33534;51.028;13.716;2022-07-23T21:42:45;19.90;68.50
47773;DHT22;33534;51.028;13.716;2022-07-23T21:45:11;19.90;69.60
47773;DHT22;33534;51.028;13.716;2022-07-23T21:47:37;20.00;68.40
47773;DHT22;33534;51.028;13.716;2022-07-23T21:50:03;20.10;69.20
47773;DHT22;33534;51.028;13.716;2022-07-23T21:52:28;20.30;67.70
47773;DHT22;33534;51.028;13.716;2022-07-23T21:54:55;20.30;67.90
47773;DHT22;33534;51.028;13.716;2022-07-23T21:57:21;20.40;67.20
47773;DHT22;33534;51.028;13.716;2022-07-23T22:02:18;20.50;67.10